Time;durP1;ratioP1;P1;durP2;ratioP2;P2;SDS_P1;SDS_P2;PMS_P1;PMS_P2;Temp;Humidity;BMP_temperature;BMP_pressure;BME280_temperature;BME280_humidity;BME280_pressure;Samples;Min_cycle;Max_cycle;Signal;HPM_P1;HPM_P2
2022/07/13 00:01:58;;;;;;;9.40;6.55;;;22.60;87.30;;;;;;4979475;28;20117;-85
2022/07/13 00:04:23;;;;;;;8.98;6.75;;;22.60;87.80;;;;;;4962736;28;20467;-84
2022/07/13 00:06:49;;;;;;;8.25;5.72;;;22.50;88.40;;;;;;5011600;28;20037;-86
2022/07/13 00:09:14;;;;;;;8.40;6.18;;;22.50;88.90;;;;;;4995423;28;20057;-85
2022/07/13 00:11:40;;;;;;;8.15;5.93;;;22.50;89.40;;;;;;4996441;28;20517;-85
2022/07/13 00:14:06;;;;;;;10.07;6.50;;;22.50;89.70;;;;;;4994954;28;20070;-85
2022/07/13 00:16:31;;;;;;;10.13;6.10;;;22.40;90.00;;;;;;4978505;28;20370;-86
2022/07/13 00:18:57;;;;;;;9.52;6.57;;;22.40;90.20;;;;;;4962867;28;20037;-85
2022/07/13 00:21:22;;;;;;;7.97;6.45;;;22.40;90.50;;;;;;4979564;28;20078;-86
2022/07/13 00:23:48;;;;;;;7.75;6.65;;;22.30;90.70;;;;;;4980160;28;20482;-86
2022/07/13 00:26:14;;;;;;;8.23;6.60;;;22.30;90.90;;;;;;4995216;28;20121;-86
2022/07/13 00:28:39;;;;;;;8.25;6.68;;;22.30;91.10;;;;;;4995301;28;20039;-86
2022/07/13 00:31:05;;;;;;;9.10;6.75;;;22.30;91.40;;;;;;4996237;28;20026;-86
2022/07/13 00:33:30;;;;;;;9.35;6.72;;;22.30;91.60;;;;;;4995914;28;20030;-86
2022/07/13 00:35:56;;;;;;;9.38;7.05;;;22.30;91.90;;;;;;4962827;28;20046;-87
2022/07/13 00:38:22;;;;;;;9.23;6.50;;;22.30;92.10;;;;;;4978563;28;20113;-87
2022/07/13 00:40:47;;;;;;;8.23;6.93;;;22.30;92.40;;;;;;4995967;28;20463;-86
2022/07/13 00:43:13;;;;;;;9.05;6.32;;;22.30;92.60;;;;;;4978686;28;20113;-85
2022/07/13 00:45:39;;;;;;;9.52;6.55;;;22.20;92.80;;;;;;4962469;28;20026;-86
2022/07/13 00:48:05;;;;;;;9.98;6.35;;;22.20;93.00;;;;;;4994704;28;20059;-86
2022/07/13 00:50:31;;;;;;;8.82;6.53;;;22.20;93.20;;;;;;4962316;28;20399;-86
2022/07/13 00:52:57;;;;;;;7.90;6.13;;;22.20;93.50;;;;;;4978304;28;20019;-86
2022/07/13 00:55:25;;;;;;;7.85;6.60;;;22.20;93.70;;;;;;4994507;28;20158;-85
2022/07/13 00:57:50;;;;;;;10.40;6.20;;;22.20;93.80;;;;;;4996889;28;20023;-85
2022/07/13 01:00:16;;;;;;;8.65;6.30;;;22.20;94.00;;;;;;4995191;28;20014;-85
2022/07/13 01:02:46;;;;;;;9.90;7.18;;;22.20;94.20;;;;;;4978349;28;20033;-86
2022/07/13 01:05:14;;;;;;;10.88;7.03;;;22.20;94.30;;;;;;4994362;28;20015;-86
2022/07/13 01:07:40;;;;;;;10.00;7.18;;;22.10;94.30;;;;;;4994196;28;20109;-86
2022/07/13 01:10:08;;;;;;;10.63;6.95;;;22.10;94.40;;;;;;4993818;28;20022;-86
2022/07/13 01:12:35;;;;;;;9.65;6.38;;;22.20;94.60;;;;;;4994217;28;20105;-86
2022/07/13 01:15:02;;;;;;;9.00;6.97;;;22.10;94.80;;;;;;4995158;28;20091;-86
2022/07/13 01:17:30;;;;;;;9.07;6.82;;;22.10;94.90;;;;;;4993854;28;20109;-85
2022/07/13 01:19:57;;;;;;;7.82;6.40;;;22.10;95.00;;;;;;4977971;28;20026;-84
2022/07/13 01:22:25;;;;;;;8.48;6.43;;;22.10;95.20;;;;;;5010288;28;20073;-86
2022/07/13 01:24:55;;;;;;;8.82;6.28;;;22.10;95.30;;;;;;4993552;28;20076;-85
2022/07/13 01:27:21;;;;;;;11.20;6.55;;;22.10;95.40;;;;;;4993253;28;20022;-85
2022/07/13 01:29:47;;;;;;;7.85;5.97;;;22.00;95.40;;;;;;4995383;28;20085;-84
2022/07/13 01:32:13;;;;;;;10.05;6.53;;;22.00;95.60;;;;;;4977403;28;20026;-85
2022/07/13 01:34:39;;;;;;;9.52;6.32;;;22.00;95.20;;;;;;4994824;28;20359;-86
2022/07/13 01:37:04;;;;;;;9.32;6.30;;;22.00;95.20;;;;;;4977606;28;20489;-86
2022/07/13 01:39:30;;;;;;;9.63;6.18;;;22.00;95.10;;;;;;4993547;28;20054;-87
2022/07/13 01:41:56;;;;;;;8.07;5.53;;;22.00;94.90;;;;;;5010375;28;20026;-86
2022/07/13 01:44:21;;;;;;;7.95;5.70;;;22.00;94.80;;;;;;4994406;28;20022;-86
2022/07/13 01:46:47;;;;;;;9.88;5.88;;;22.00;94.70;;;;;;4993479;28;20029;-86
2022/07/13 01:49:13;;;;;;;10.75;6.60;;;22.00;94.70;;;;;;4993196;28;20391;-85
2022/07/13 01:51:39;;;;;;;9.15;6.47;;;22.00;94.60;;;;;;4993762;28;20060;-85
2022/07/13 01:54:05;;;;;;;7.88;6.20;;;22.00;94.60;;;;;;4993240;28;20038;-86
2022/07/13 01:56:32;;;;;;;7.75;6.38;;;21.90;94.50;;;;;;4977233;28;20031;-86
2022/07/13 01:58:59;;;;;;;7.57;5.82;;;21.90;94.70;;;;;;4976800;28;20022;-85
2022/07/13 02:01:24;;;;;;;9.98;6.15;;;21.90;94.80;;;;;;4993565;28;20026;-86
2022/07/13 02:03:50;;;;;;;7.63;5.55;;;21.90;94.80;;;;;;4994477;28;20466;-86
2022/07/13 02:06:16;;;;;;;8.18;6.63;;;21.90;95.00;;;;;;4993251;28;20037;-87
2022/07/13 02:08:41;;;;;;;8.45;6.40;;;21.90;95.00;;;;;;4977327;28;20033;-86
2022/07/13 02:11:07;;;;;;;8.73;5.88;;;21.80;95.20;;;;;;4994614;28;20027;-86
2022/07/13 02:13:33;;;;;;;6.72;5.80;;;21.80;95.00;;;;;;4976911;28;20375;-86
2022/07/13 02:15:59;;;;;;;10.38;5.82;;;21.80;94.90;;;;;;4977939;28;20386;-86
2022/07/13 02:18:25;;;;;;;14.60;6.35;;;21.80;94.90;;;;;;4976936;28;20030;-86
2022/07/13 02:20:51;;;;;;;8.35;5.80;;;21.80;94.90;;;;;;4993223;28;20124;-86
2022/07/13 02:23:16;;;;;;;7.85;6.30;;;21.80;94.90;;;;;;4977202;28;20479;-86
2022/07/13 02:25:42;;;;;;;10.43;5.40;;;21.80;95.00;;;;;;4961190;28;20069;-86
2022/07/13 02:28:08;;;;;;;8.40;6.13;;;21.80;95.00;;;;;;4976904;28;20054;-85
2022/07/13 02:30:34;;;;;;;7.32;5.90;;;21.80;94.90;;;;;;4976866;28;20030;-85
2022/07/13 02:33:00;;;;;;;7.82;5.80;;;21.80;94.90;;;;;;4977171;28;20049;-86
2022/07/13 02:35:26;;;;;;;8.55;5.60;;;21.80;94.90;;;;;;4994434;28;20371;-86
2022/07/13 02:37:52;;;;;;;8.25;5.38;;;21.80;94.90;;;;;;4999074;28;20037;-86
2022/07/13 02:40:17;;;;;;;8.05;5.07;;;21.80;94.90;;;;;;5003739;28;20027;-86
2022/07/13 02:42:44;;;;;;;6.97;4.85;;;21.80;94.70;;;;;;5001540;28;20018;-87
2022/07/13 02:45:10;;;;;;;6.65;4.65;;;21.70;94.60;;;;;;5017398;28;20035;-85
2022/07/13 02:47:35;;;;;;;5.75;4.40;;;21.80;94.40;;;;;;5004816;28;20026;-85
2022/07/13 02:50:01;;;;;;;6.65;4.15;;;21.70;94.30;;;;;;5003889;28;20410;-85
2022/07/13 02:52:27;;;;;;;7.80;4.97;;;21.70;94.20;;;;;;4987970;28;20076;-85
2022/07/13 02:54:53;;;;;;;7.03;4.78;;;21.70;94.10;;;;;;4969324;28;20031;-84
2022/07/13 02:57:18;;;;;;;6.45;4.25;;;21.70;94.00;;;;;;5001652;28;20081;-85
2022/07/13 02:59:44;;;;;;;7.00;5.00;;;21.70;94.00;;;;;;5000101;28;20018;-88
2022/07/13 03:02:10;;;;;;;14.90;4.90;;;21.70;94.00;;;;;;4983460;28;20030;-85
2022/07/13 03:04:35;;;;;;;7.55;4.05;;;21.70;94.10;;;;;;4999292;28;20034;-86
2022/07/13 03:07:01;;;;;;;6.38;4.82;;;21.70;94.10;;;;;;4999840;28;20025;-86
2022/07/13 03:09:27;;;;;;;6.57;4.72;;;21.70;94.10;;;;;;4983270;28;20037;-85
2022/07/13 03:11:53;;;;;;;7.25;4.57;;;21.70;94.20;;;;;;4999271;28;20022;-85
2022/07/13 03:14:19;;;;;;;7.28;4.88;;;21.70;94.20;;;;;;4982615;28;20521;-85
2022/07/13 03:16:44;;;;;;;6.80;4.50;;;21.70;94.20;;;;;;4999016;28;20018;-86
2022/07/13 03:19:10;;;;;;;8.05;4.82;;;21.70;94.20;;;;;;5015614;28;20033;-86
2022/07/13 03:21:36;;;;;;;7.22;4.43;;;21.70;94.20;;;;;;4998806;28;20033;-86
2022/07/13 03:24:02;;;;;;;7.78;4.75;;;21.70;94.20;;;;;;4999005;28;20050;-85
2022/07/13 03:26:28;;;;;;;6.78;4.10;;;21.70;94.20;;;;;;4998952;28;20018;-85
2022/07/13 03:28:54;;;;;;;7.82;3.92;;;21.70;94.20;;;;;;5000066;28;20360;-84
2022/07/13 03:31:19;;;;;;;6.60;4.75;;;21.70;94.20;;;;;;4998533;28;20101;-87
2022/07/13 03:33:45;;;;;;;5.75;4.40;;;21.70;94.20;;;;;;4966602;28;20018;-87
2022/07/13 03:36:11;;;;;;;5.30;4.00;;;21.70;94.20;;;;;;5000112;28;20390;-86
2022/07/13 03:38:37;;;;;;;6.03;4.18;;;21.70;94.50;;;;;;4998664;28;20018;-87
2022/07/13 03:41:03;;;;;;;5.78;3.60;;;21.70;94.10;;;;;;4999797;28;20034;-87
2022/07/13 03:43:28;;;;;;;6.97;4.03;;;21.70;94.00;;;;;;4983067;28;20410;-86
2022/07/13 03:45:54;;;;;;;6.40;3.83;;;21.60;94.00;;;;;;4999945;28;20033;-86
2022/07/13 03:48:20;;;;;;;7.90;4.03;;;21.60;94.00;;;;;;4998568;28;20474;-86
2022/07/13 03:50:49;;;;;;;6.95;4.32;;;21.60;94.00;;;;;;4979107;28;20076;-85
2022/07/13 03:53:15;;;;;;;5.32;3.63;;;21.60;94.00;;;;;;4996556;28;20097;-86
2022/07/13 03:55:42;;;;;;;8.30;4.07;;;21.60;94.00;;;;;;4995297;28;20451;-85
2022/07/13 03:58:10;;;;;;;6.13;3.63;;;21.70;94.00;;;;;;4995540;28;20109;-85
2022/07/13 04:00:36;;;;;;;7.05;3.53;;;21.60;93.80;;;;;;4996343;28;20518;-85
2022/07/13 04:03:01;;;;;;;6.90;4.70;;;21.60;93.80;;;;;;4995480;28;20053;-86
2022/07/13 04:05:27;;;;;;;6.07;4.20;;;21.60;93.80;;;;;;4979243;28;20027;-85
2022/07/13 04:07:54;;;;;;;7.45;4.25;;;21.60;93.90;;;;;;4995496;28;20062;-85
2022/07/13 04:10:21;;;;;;;5.70;3.78;;;21.70;93.90;;;;;;4978999;28;20026;-85
2022/07/13 04:12:47;;;;;;;4.72;3.63;;;21.70;94.00;;;;;;4995248;28;20088;-85
2022/07/13 04:15:13;;;;;;;4.57;3.38;;;21.70;94.00;;;;;;4994896;28;20093;-86
2022/07/13 04:17:40;;;;;;;5.47;3.88;;;21.70;94.00;;;;;;4995292;28;20431;-86
2022/07/13 04:20:07;;;;;;;6.85;4.03;;;21.70;94.00;;;;;;4995409;28;20010;-86
2022/07/13 04:22:32;;;;;;;6.43;3.55;;;21.70;94.00;;;;;;4995895;28;20042;-86
2022/07/13 04:24:58;;;;;;;8.48;3.38;;;21.70;93.90;;;;;;4995981;28;20027;-86
2022/07/13 04:27:24;;;;;;;5.25;3.33;;;21.70;93.90;;;;;;4994976;28;20161;-86
2022/07/13 04:29:49;;;;;;;6.43;3.58;;;21.70;93.90;;;;;;4996871;28;20061;-86
2022/07/13 04:32:15;;;;;;;4.82;3.28;;;21.70;94.00;;;;;;5001664;28;20109;-86
2022/07/13 04:34:40;;;;;;;4.25;3.08;;;21.70;94.10;;;;;;4994363;28;20074;-87
2022/07/13 04:37:06;;;;;;;4.93;3.25;;;21.70;94.10;;;;;;4999849;28;20045;-86
2022/07/13 04:39:32;;;;;;;4.68;3.10;;;21.70;94.10;;;;;;5015343;28;20035;-84
2022/07/13 04:41:59;;;;;;;6.75;3.33;;;21.70;94.20;;;;;;4979627;28;20034;-85
2022/07/13 04:44:26;;;;;;;5.32;3.40;;;21.70;94.10;;;;;;4995466;28;20152;-85
2022/07/13 04:46:52;;;;;;;7.15;3.63;;;21.80;94.30;;;;;;5013347;28;20010;-84
2022/07/13 04:49:19;;;;;;;4.95;2.88;;;21.70;94.30;;;;;;4993084;28;20022;-85
2022/07/13 04:51:47;;;;;;;5.32;3.03;;;21.80;94.20;;;;;;5011341;28;20123;-85
2022/07/13 04:54:16;;;;;;;5.55;2.92;;;21.80;94.00;;;;;;5011968;28;20080;-84
2022/07/13 04:56:41;;;;;;;6.57;3.00;;;21.80;93.70;;;;;;5012625;28;20683;-86
2022/07/13 04:59:07;;;;;;;5.53;3.28;;;21.90;93.60;;;;;;5029651;28;20029;-85
2022/07/13 05:01:33;;;;;;;4.45;2.17;;;22.00;93.50;;;;;;5012168;28;20080;-87
2022/07/13 05:03:59;;;;;;;3.70;2.60;;;22.00;93.40;;;;;;4996614;28;20506;-86
2022/07/13 05:06:25;;;;;;;4.72;3.15;;;22.00;93.30;;;;;;5013509;28;20097;-85
2022/07/13 05:08:50;;;;;;;8.68;3.42;;;22.00;93.00;;;;;;5015007;28;20022;-86
2022/07/13 05:11:16;;;;;;;5.28;3.42;;;22.00;92.50;;;;;;5015342;28;20026;-86
2022/07/13 05:13:42;;;;;;;5.65;3.95;;;22.00;92.10;;;;;;5013660;28;20037;-84
2022/07/13 05:16:07;;;;;;;5.90;3.50;;;22.00;91.90;;;;;;5013543;28;20030;-87
2022/07/13 05:18:33;;;;;;;9.00;3.67;;;22.10;91.80;;;;;;4997553;28;20026;-87
2022/07/13 05:20:59;;;;;;;7.30;3.72;;;22.10;91.60;;;;;;5015060;28;20083;-87
2022/07/13 05:23:25;;;;;;;6.25;3.92;;;22.10;91.30;;;;;;5015088;28;20053;-88
2022/07/13 05:25:50;;;;;;;7.03;3.67;;;22.10;91.10;;;;;;4997306;28;20022;-87
2022/07/13 05:28:16;;;;;;;8.48;4.38;;;22.20;90.90;;;;;;5014112;28;20160;-88
2022/07/13 05:30:41;;;;;;;7.05;4.68;;;22.20;90.70;;;;;;5014100;28;20017;-88
2022/07/13 05:33:07;;;;;;;8.50;4.50;;;22.20;90.40;;;;;;5015043;28;20100;-88
2022/07/13 05:35:33;;;;;;;6.43;4.18;;;22.30;90.30;;;;;;5013291;28;20466;-87
2022/07/13 05:37:58;;;;;;;6.15;4.00;;;22.30;90.10;;;;;;4997502;28;20029;-87
2022/07/13 05:40:24;;;;;;;8.23;4.93;;;22.30;90.00;;;;;;4986055;28;20026;-87
2022/07/13 05:42:50;;;;;;;7.68;5.03;;;22.40;89.50;;;;;;4996290;28;20018;-87
2022/07/13 05:45:16;;;;;;;5.95;4.47;;;22.40;89.10;;;;;;5010982;28;20033;-86
2022/07/13 05:47:48;;;;;;;8.50;5.40;;;22.40;88.90;;;;;;4996484;28;20048;-88
2022/07/13 05:50:15;;;;;;;8.18;5.60;;;22.40;88.50;;;;;;4997993;28;20036;-87
2022/07/13 05:52:41;;;;;;;7.78;6.05;;;22.40;88.00;;;;;;4995887;28;20025;-86
2022/07/13 05:55:08;;;;;;;11.55;6.93;;;22.40;87.60;;;;;;5011201;28;20084;-88
2022/07/13 05:57:35;;;;;;;9.38;6.28;;;22.40;88.10;;;;;;5013066;28;20010;-87
2022/07/13 06:00:00;;;;;;;9.35;6.18;;;22.40;87.50;;;;;;5014577;28;20065;-86
2022/07/13 06:02:26;;;;;;;7.80;5.35;;;22.50;87.70;;;;;;5001994;28;20467;-85
2022/07/13 06:04:52;;;;;;;9.35;6.53;;;22.50;87.70;;;;;;5012991;28;20366;-87
2022/07/13 06:07:17;;;;;;;8.90;6.25;;;22.50;87.50;;;;;;5013239;28;20026;-88
2022/07/13 06:09:43;;;;;;;9.52;6.50;;;22.50;87.40;;;;;;5013924;28;20106;-87
2022/07/13 06:12:08;;;;;;;10.25;6.07;;;22.60;87.40;;;;;;4997141;28;20026;-88
2022/07/13 06:14:34;;;;;;;8.13;5.63;;;22.60;87.30;;;;;;5012206;28;20545;-89
2022/07/13 06:17:01;;;;;;;11.77;6.25;;;22.70;87.40;;;;;;5013983;28;20109;-88
2022/07/13 06:19:27;;;;;;;8.80;6.13;;;22.80;87.30;;;;;;5012897;28;20026;-87
2022/07/13 06:21:52;;;;;;;9.65;6.65;;;22.80;87.30;;;;;;5012711;28;20535;-88
2022/07/13 06:24:18;;;;;;;11.27;6.35;;;22.90;87.20;;;;;;4995524;28;20050;-87
2022/07/13 06:26:45;;;;;;;9.75;5.85;;;22.90;87.00;;;;;;4996214;28;20030;-87
2022/07/13 06:29:10;;;;;;;7.85;5.90;;;23.00;86.80;;;;;;4996998;28;20053;-90
2022/07/13 06:31:36;;;;;;;10.38;6.13;;;23.00;86.70;;;;;;4996760;28;20099;-91
2022/07/13 06:34:02;;;;;;;10.40;6.00;;;23.00;86.50;;;;;;5012983;28;20489;-89
2022/07/13 06:36:27;;;;;;;8.73;5.70;;;23.10;86.20;;;;;;4995801;28;20026;-89
2022/07/13 06:38:53;;;;;;;9.90;6.03;;;23.10;86.00;;;;;;5012703;28;20065;-86
2022/07/13 06:41:19;;;;;;;8.63;6.38;;;23.20;86.00;;;;;;4995962;28;20026;-81
2022/07/13 06:43:45;;;;;;;10.50;5.72;;;23.20;85.70;;;;;;4980076;28;20026;-81
2022/07/13 06:46:10;;;;;;;7.95;5.45;;;23.30;85.40;;;;;;4995757;28;20462;-81
2022/07/13 06:48:36;;;;;;;10.38;6.40;;;23.40;85.00;;;;;;5003280;28;20462;-81
2022/07/13 06:51:03;;;;;;;9.45;6.35;;;23.40;84.80;;;;;;5006997;28;20030;-81
2022/07/13 06:53:29;;;;;;;10.13;5.43;;;23.50;84.60;;;;;;4995942;28;20034;-81
2022/07/13 06:55:55;;;;;;;8.32;5.60;;;23.50;84.40;;;;;;5012218;28;20029;-82
2022/07/13 06:58:21;;;;;;;8.48;5.25;;;23.60;84.60;;;;;;4992378;28;20022;-81
2022/07/13 07:00:47;;;;;;;12.40;6.05;;;23.60;83.60;;;;;;5001493;28;20018;-81
2022/07/13 07:03:13;;;;;;;9.18;5.82;;;23.70;82.90;;;;;;5002759;28;20068;-81
2022/07/13 07:05:39;;;;;;;9.23;5.80;;;23.70;82.30;;;;;;5001189;28;20093;-82
2022/07/13 07:08:05;;;;;;;9.85;5.65;;;23.70;81.60;;;;;;5002844;28;20101;-82
2022/07/13 07:10:31;;;;;;;13.70;5.80;;;23.70;81.50;;;;;;5002783;28;20081;-82
2022/07/13 07:12:59;;;;;;;9.05;5.85;;;23.80;81.60;;;;;;5001620;28;20418;-81
2022/07/13 07:15:27;;;;;;;11.93;5.63;;;23.80;81.50;;;;;;5002410;28;20037;-82
2022/07/13 07:17:53;;;;;;;8.40;5.60;;;23.90;81.50;;;;;;5002924;28;20038;-82
2022/07/13 07:20:21;;;;;;;9.20;5.82;;;23.90;80.50;;;;;;5011617;28;20026;-81
2022/07/13 07:22:47;;;;;;;10.32;5.78;;;23.90;80.10;;;;;;4994067;28;20100;-82
2022/07/13 07:25:14;;;;;;;8.75;5.45;;;24.00;80.10;;;;;;4982759;28;20042;-89
2022/07/13 07:27:40;;;;;;;8.93;4.70;;;24.10;79.60;;;;;;5000159;28;20058;-88
2022/07/13 07:30:07;;;;;;;9.98;4.95;;;24.00;79.40;;;;;;4998770;28;20055;-88
2022/07/13 07:32:32;;;;;;;9.68;4.80;;;24.10;79.50;;;;;;4981574;28;20026;-88
2022/07/13 07:34:58;;;;;;;8.52;5.75;;;24.20;79.50;;;;;;4980887;28;20045;-89
2022/07/13 07:37:24;;;;;;;7.18;4.60;;;24.40;79.70;;;;;;4997328;28;20037;-87
2022/07/13 07:39:51;;;;;;;6.53;4.40;;;24.50;79.60;;;;;;4998190;28;20023;-88
2022/07/13 07:42:18;;;;;;;7.05;4.25;;;24.60;78.90;;;;;;4996833;28;20475;-83
2022/07/13 07:44:44;;;;;;;8.40;4.30;;;24.70;78.60;;;;;;4981029;28;20486;-89
2022/07/13 07:47:10;;;;;;;10.30;3.75;;;24.80;77.30;;;;;;5005610;28;20033;-86
2022/07/13 07:49:35;;;;;;;6.55;3.88;;;24.80;76.40;;;;;;5019806;28;20045;-87
2022/07/13 07:52:01;;;;;;;7.55;3.50;;;24.90;76.30;;;;;;5005515;28;20022;-88
2022/07/13 07:54:27;;;;;;;7.28;3.63;;;24.90;76.00;;;;;;5016605;28;20030;-88
2022/07/13 07:56:53;;;;;;;5.50;3.30;;;24.90;75.80;;;;;;5015679;28;20027;-88
2022/07/13 07:59:18;;;;;;;8.77;2.78;;;25.00;75.70;;;;;;4990782;28;20034;-88
2022/07/13 08:01:44;;;;;;;6.40;3.13;;;25.00;75.80;;;;;;4988332;28;20090;-89
2022/07/13 08:04:10;;;;;;;5.90;2.85;;;25.20;76.10;;;;;;5003171;28;20027;-87
2022/07/13 08:06:36;;;;;;;4.50;2.97;;;25.20;75.90;;;;;;5007449;28;20049;-85
2022/07/13 08:09:02;;;;;;;10.00;3.22;;;25.40;75.70;;;;;;5003649;28;20022;-85
2022/07/13 08:11:28;;;;;;;5.32;3.10;;;25.40;75.50;;;;;;5001392;28;20026;-87
2022/07/13 08:13:54;;;;;;;6.47;3.60;;;25.40;75.10;;;;;;4996731;28;20121;-89
2022/07/13 08:16:20;;;;;;;4.93;3.03;;;25.40;74.60;;;;;;4996611;28;20371;-88
2022/07/13 08:18:46;;;;;;;7.05;3.78;;;25.40;74.90;;;;;;4996058;28;20073;-88
2022/07/13 08:21:12;;;;;;;7.43;3.25;;;25.40;74.90;;;;;;4979920;28;20022;-88
2022/07/13 08:23:54;;;;;;;6.40;4.03;;;25.40;74.80;;;;;;4978872;28;20046;-88
2022/07/13 08:26:24;;;;;;;6.72;3.95;;;25.50;75.00;;;;;;4999140;28;20105;-85
2022/07/13 08:28:51;;;;;;;7.93;4.43;;;25.50;75.10;;;;;;5005576;28;20105;-89
2022/07/13 08:31:21;;;;;;;6.07;3.17;;;25.60;75.10;;;;;;4996169;28;20036;-87
2022/07/13 08:39:17;;;;;;;7.00;3.65;;;25.60;73.90;;;;;;5012718;28;20045;-86
2022/07/13 08:41:43;;;;;;;9.55;4.88;;;25.60;73.40;;;;;;5014888;28;20454;-87
2022/07/13 08:44:09;;;;;;;6.85;3.55;;;25.60;73.40;;;;;;4998043;28;20080;-88
2022/07/13 08:46:35;;;;;;;8.57;3.67;;;25.70;73.80;;;;;;5014160;28;20022;-87
2022/07/13 08:49:01;;;;;;;6.60;3.78;;;25.70;73.50;;;;;;5014680;28;20030;-89
2022/07/13 08:51:30;;;;;;;8.35;3.65;;;25.80;73.40;;;;;;5014250;28;20589;-88
2022/07/13 08:53:56;;;;;;;6.03;3.42;;;25.90;73.50;;;;;;5015935;28;20033;-87
2022/07/13 08:56:22;;;;;;;11.10;3.25;;;26.00;73.50;;;;;;4998507;28;20026;-88
2022/07/13 08:58:47;;;;;;;6.78;3.88;;;26.10;73.40;;;;;;5013417;28;20045;-88
2022/07/13 09:01:14;;;;;;;5.13;3.00;;;26.20;73.40;;;;;;5014845;28;20018;-89
2022/07/13 09:03:41;;;;;;;8.18;3.20;;;26.30;73.10;;;;;;5014414;28;20541;-89
2022/07/13 09:06:07;;;;;;;6.50;3.50;;;26.40;72.90;;;;;;5014213;28;20017;-89
2022/07/13 09:08:43;;;;;;;8.05;3.03;;;26.50;72.50;;;;;;4997570;28;20479;-87
2022/07/13 09:11:10;;;;;;;6.07;3.35;;;26.70;71.90;;;;;;4998405;28;20030;-87
2022/07/13 09:13:38;;;;;;;5.75;3.55;;;26.80;71.70;;;;;;5014687;28;20076;-88
2022/07/13 09:16:19;;;;;;;6.18;3.65;;;26.80;71.30;;;;;;5014368;28;20029;-90
2022/07/13 09:18:55;;;;;;;8.30;3.47;;;27.00;71.80;;;;;;5015499;28;20025;-89
2022/07/13 09:21:23;;;;;;;7.18;2.90;;;27.00;70.60;;;;;;5013996;28;20141;-89
2022/07/13 09:24:00;;;;;;;5.80;3.15;;;27.10;70.40;;;;;;5014049;28;20046;-89
2022/07/13 09:26:46;;;;;;;4.97;2.63;;;27.10;70.00;;;;;;5014885;28;20026;-89
2022/07/13 09:29:12;;;;;;;5.68;3.22;;;27.10;69.20;;;;;;5014991;28;20072;-90
2022/07/13 09:31:58;;;;;;;7.72;3.42;;;27.10;69.30;;;;;;5014626;28;20026;-89
2022/07/13 09:34:46;;;;;;;7.40;3.72;;;27.10;69.10;;;;;;5014026;28;20556;-90
2022/07/13 09:37:13;;;;;;;5.93;3.33;;;27.10;69.30;;;;;;4996827;28;20109;-87
2022/07/13 09:40:07;;;;;;;7.75;3.35;;;27.00;69.20;;;;;;4977614;28;20022;-89
2022/07/13 09:42:40;;;;;;;7.07;3.58;;;27.00;70.20;;;;;;4993772;28;20026;-89
2022/07/13 09:48:15;;;;;;;5.15;3.10;;;27.00;69.50;;;;;;4984112;28;19913;-87
2022/07/13 09:50:41;;;;;;;9.57;3.83;;;27.00;69.50;;;;;;5017747;28;20033;-89
2022/07/13 09:53:27;;;;;;;7.28;3.17;;;26.90;69.10;;;;;;5005474;28;20025;-89
2022/07/13 09:55:54;;;;;;;5.53;3.38;;;26.90;68.70;;;;;;5019333;28;20382;-88
2022/07/13 09:58:29;;;;;;;5.57;3.22;;;26.90;68.50;;;;;;5002136;28;20030;-88
2022/07/13 10:00:56;;;;;;;6.32;3.38;;;26.90;68.50;;;;;;5002262;28;20025;-86
2022/07/13 10:03:29;;;;;;;5.47;2.60;;;26.90;68.30;;;;;;5005408;28;20085;-88
2022/07/13 10:05:56;;;;;;;9.75;3.55;;;27.00;68.70;;;;;;5001534;28;20398;-88
2022/07/13 10:08:22;;;;;;;4.82;2.78;;;27.00;68.60;;;;;;5003566;28;20030;-87
2022/07/13 10:10:48;;;;;;;10.13;3.10;;;27.00;68.30;;;;;;5003827;28;20027;-88
2022/07/13 10:13:14;;;;;;;10.15;3.47;;;27.00;68.00;;;;;;5002793;28;20021;-87
2022/07/13 10:15:41;;;;;;;8.40;3.33;;;27.00;67.80;;;;;;5004325;28;20034;-87
2022/07/13 10:18:10;;;;;;;5.68;3.05;;;27.10;67.40;;;;;;5002479;28;20028;-87
2022/07/13 10:20:39;;;;;;;4.22;2.13;;;27.10;66.90;;;;;;5015446;28;20105;-91
2022/07/13 10:23:05;;;;;;;4.85;2.15;;;27.20;66.70;;;;;;5014049;28;20050;-91
2022/07/13 10:25:45;;;;;;;5.03;2.05;;;27.20;66.90;;;;;;4993500;28;20105;-90
2022/07/13 10:28:12;;;;;;;6.22;1.90;;;27.10;66.60;;;;;;4979179;28;20026;-89
2022/07/13 10:30:38;;;;;;;3.88;2.13;;;27.10;66.60;;;;;;4993096;28;20117;-91
2022/07/13 10:33:18;;;;;;;5.47;2.22;;;27.10;66.60;;;;;;5002680;28;20033;-89
2022/07/13 10:36:04;;;;;;;4.32;1.85;;;27.20;66.60;;;;;;5015955;28;20049;-91
2022/07/13 10:38:29;;;;;;;3.90;2.30;;;27.20;66.50;;;;;;4997571;28;20079;-91
2022/07/13 10:41:21;;;;;;;6.05;2.08;;;27.30;66.40;;;;;;5004612;28;20026;-88
2022/07/13 10:44:05;;;;;;;3.47;1.55;;;27.40;66.30;;;;;;4997770;28;20518;-87
2022/07/13 10:46:48;;;;;;;4.68;1.90;;;27.60;66.20;;;;;;4979658;28;20034;-89
2022/07/13 10:49:47;;;;;;;3.15;1.10;;;27.70;66.10;;;;;;4995626;28;20058;-90
2022/07/13 10:52:22;;;;;;;4.97;1.63;;;27.80;66.10;;;;;;4963732;28;20467;-88
2022/07/13 10:55:11;;;;;;;3.72;1.80;;;28.00;65.80;;;;;;4996359;28;20110;-90
2022/07/13 10:57:44;;;;;;;3.70;1.77;;;28.20;65.50;;;;;;4992500;28;20034;-90
2022/07/13 11:00:24;;;;;;;;;;;28.30;65.40;;;;;;5013720;28;20022;-90
2022/07/13 11:02:51;;;;;;;3.50;1.52;;;28.50;65.20;;;;;;5019151;28;19948;-91
2022/07/13 11:05:21;;;;;;;3.17;1.58;;;28.60;65.10;;;;;;5019258;28;20030;-90
2022/07/13 11:07:49;;;;;;;3.60;1.70;;;28.80;64.60;;;;;;5017774;28;20120;-90
2022/07/13 11:10:19;;;;;;;4.07;1.83;;;28.90;64.10;;;;;;5019268;28;20026;-90
2022/07/13 11:13:17;;;;;;;4.05;1.58;;;29.10;63.80;;;;;;5018072;28;20389;-88
2022/07/13 11:15:54;;;;;;;4.78;1.40;;;29.20;63.20;;;;;;5017838;28;20100;-90
2022/07/13 11:18:22;;;;;;;2.50;1.08;;;29.40;62.70;;;;;;5018442;28;20049;-91
2022/07/13 11:21:23;;;;;;;3.55;1.33;;;29.50;62.10;;;;;;5034497;28;20022;-88
2022/07/13 11:27:18;;;;;;;2.00;0.77;;;29.80;60.40;;;;;;4958474;28;20031;-90
2022/07/13 11:29:57;;;;;;;4.20;1.00;;;29.90;60.50;;;;;;4959055;29;20043;-90
2022/07/13 11:32:25;;;;;;;5.18;1.10;;;30.00;59.10;;;;;;4983202;28;20034;-89
2022/07/13 11:34:52;;;;;;;1.58;0.80;;;30.20;58.40;;;;;;4998009;28;20049;-89
2022/07/13 11:37:24;;;;;;;3.40;0.80;;;30.20;57.70;;;;;;4981868;28;20033;-90
2022/07/13 11:39:50;;;;;;;4.70;1.00;;;30.30;57.10;;;;;;4998531;28;20034;-91
2022/07/13 11:42:20;;;;;;;2.67;1.02;;;30.30;56.90;;;;;;4997498;28;20026;-89
2022/07/13 11:44:49;;;;;;;4.05;1.13;;;30.30;56.60;;;;;;4997397;28;20045;-89
2022/07/13 11:47:18;;;;;;;2.70;0.90;;;30.30;56.50;;;;;;4998203;28;20027;-88
2022/07/13 11:49:49;;;;;;;3.20;1.00;;;30.40;56.30;;;;;;4996802;28;20115;-90
2022/07/13 11:52:22;;;;;;;2.40;0.95;;;30.40;55.90;;;;;;4996471;28;20066;-90
2022/07/13 11:55:02;;;;;;;3.65;0.90;;;30.30;55.40;;;;;;4980383;28;20038;-91
2022/07/13 11:57:29;;;;;;;2.15;0.80;;;30.30;55.10;;;;;;4996750;28;20459;-90
2022/07/13 12:00:06;;;;;;;2.97;1.05;;;30.40;55.00;;;;;;4996491;28;20050;-89
2022/07/13 12:02:32;;;;;;;1.63;0.70;;;30.50;54.60;;;;;;4996265;28;20034;-87
2022/07/13 12:04:58;;;;;;;3.75;0.90;;;30.50;54.50;;;;;;4980672;28;20026;-89
2022/07/13 12:07:26;;;;;;;3.15;0.93;;;30.50;54.20;;;;;;4996154;28;20076;-88
2022/07/13 12:09:55;;;;;;;2.38;0.90;;;30.60;53.90;;;;;;4997311;28;20105;-89
2022/07/13 12:12:44;;;;;;;2.70;0.70;;;30.70;53.70;;;;;;4996302;28;20102;-89
2022/07/13 12:15:10;;;;;;;1.55;0.70;;;30.80;53.40;;;;;;4996808;28;20034;-88
2022/07/13 12:17:45;;;;;;;2.90;0.90;;;30.80;53.30;;;;;;4979503;28;20026;-90
2022/07/13 12:20:14;;;;;;;2.17;0.80;;;31.00;52.10;;;;;;4995584;28;20056;-89
2022/07/13 12:22:46;;;;;;;1.25;0.65;;;31.10;51.70;;;;;;4995736;28;20053;-88
2022/07/13 12:25:29;;;;;;;1.00;0.50;;;31.30;50.90;;;;;;4996629;28;20047;-88
2022/07/13 12:27:59;;;;;;;2.15;0.50;;;31.40;49.80;;;;;;4994730;28;20030;-88
2022/07/13 12:30:25;;;;;;;3.88;0.60;;;31.50;49.60;;;;;;4995427;28;20027;-88
2022/07/13 12:32:59;;;;;;;2.13;0.50;;;31.60;49.10;;;;;;4995274;28;20105;-88
2022/07/13 12:35:29;;;;;;;1.95;0.60;;;31.80;48.20;;;;;;4996615;28;20044;-90
2022/07/13 12:37:56;;;;;;;3.72;0.52;;;32.00;47.70;;;;;;4979360;28;20023;-88
2022/07/13 12:40:58;;;;;;;3.22;0.60;;;32.30;47.70;;;;;;5001689;28;20434;-90
2022/07/13 12:43:29;;;;;;;2.35;0.70;;;32.50;46.70;;;;;;4983873;28;20034;-90
2022/07/13 12:46:00;;;;;;;2.53;0.80;;;32.80;46.70;;;;;;5015457;28;20017;-87
2022/07/13 12:48:27;;;;;;;2.30;0.68;;;33.00;46.20;;;;;;5013095;28;20025;-90
2022/07/13 12:51:16;;;;;;;3.65;0.55;;;33.30;45.70;;;;;;5015693;28;20030;-88
2022/07/13 12:53:56;;;;;;;3.15;0.82;;;33.40;45.20;;;;;;5020295;28;20049;-89
2022/07/13 12:56:26;;;;;;;1.40;0.65;;;33.60;44.70;;;;;;5027665;28;20220;-91
2022/07/13 12:58:54;;;;;;;3.33;0.70;;;33.80;44.90;;;;;;5022753;28;20026;-89
2022/07/13 13:01:30;;;;;;;2.42;0.60;;;33.80;44.40;;;;;;5016891;28;20028;-91
2022/07/13 13:03:56;;;;;;;4.60;0.50;;;33.90;44.00;;;;;;5022092;28;20034;-89